Terminal Aerodrome Forecast
Issued by NWS

Current Version | Previous Version | Text Only | Print | Product List | Glossary Off
Versions: 1 2 3 4 5 6 7 8 9 10 11 12 13 14 15 16 17 18 19 20 21 22

000
FTUS41 KPBZ 191120
TAFMGW
TAF
KMGW 191120Z 1912/2012 34005KT 4SM BR OVC006
     FM191400 33012G22KT 2SM -SHSN OVC005
     FM191800 32013G25KT P6SM VCSH BKN025
     FM192300 30012G22KT P6SM BKN035
     FM200200 30008KT P6SM BKN025=

USA.gov is the U.S. government's official web portal to all federal, state and local government web resources and services.